sensor_id;sensor_type;location;lat;lon;timestamp;pressure;altitude;pressure_sealevel;temperature;humidity
77737;BME280;66903;59.926;30.404;2023-09-18T00:04:59;101875.38;;;26.04;42.40
77737;BME280;66903;59.926;30.404;2023-09-18T00:10:00;101884.22;;;26.02;42.40
77737;BME280;66903;59.926;30.404;2023-09-18T00:15:01;101909.13;;;26.02;42.43
77737;BME280;66903;59.926;30.404;2023-09-18T00:20:01;101908.03;;;26.03;42.23
77737;BME280;66903;59.926;30.404;2023-09-18T00:25:03;101914.03;;;26.01;42.18
77737;BME280;66903;59.926;30.404;2023-09-18T00:30:04;101917.72;;;26.02;42.26
77737;BME280;66903;59.926;30.404;2023-09-18T00:35:07;101922.03;;;25.99;42.23
77737;BME280;66903;59.926;30.404;2023-09-18T00:40:07;101918.59;;;25.97;42.36
77737;BME280;66903;59.926;30.404;2023-09-18T00:45:08;101917.44;;;25.98;42.39
77737;BME280;66903;59.926;30.404;2023-09-18T00:50:11;101927.78;;;25.99;42.53
77737;BME280;66903;59.926;30.404;2023-09-18T00:55:12;101924.34;;;25.97;42.50
77737;BME280;66903;59.926;30.404;2023-09-18T01:00:13;101920.03;;;25.95;42.50
77737;BME280;66903;59.926;30.404;2023-09-18T01:05:17;101924.06;;;25.94;42.48
77737;BME280;66903;59.926;30.404;2023-09-18T01:10:23;101926.91;;;25.94;42.48
77737;BME280;66903;59.926;30.404;2023-09-18T01:15:33;101927.50;;;25.96;42.34
77737;BME280;66903;59.926;30.404;2023-09-18T01:20:35;101939.50;;;25.93;42.35
77737;BME280;66903;59.926;30.404;2023-09-18T01:25:36;101944.69;;;25.91;42.17
77737;BME280;66903;59.926;30.404;2023-09-18T01:30:37;101941.25;;;25.89;42.10
77737;BME280;66903;59.926;30.404;2023-09-18T01:35:39;101958.13;;;25.90;41.86
77737;BME280;66903;59.926;30.404;2023-09-18T01:40:41;101965.28;;;25.88;42.10
77737;BME280;66903;59.926;30.404;2023-09-18T01:45:42;101958.44;;;25.89;41.94
77737;BME280;66903;59.926;30.404;2023-09-18T01:50:43;101964.44;;;25.87;42.14
77737;BME280;66903;59.926;30.404;2023-09-18T01:55:44;101967.31;;;25.87;42.13
77737;BME280;66903;59.926;30.404;2023-09-18T02:00:45;101965.28;;;25.88;42.21
77737;BME280;66903;59.926;30.404;2023-09-18T02:05:45;101967.31;;;25.87;42.22
77737;BME280;66903;59.926;30.404;2023-09-18T02:10:46;101961.84;;;25.86;41.78
77737;BME280;66903;59.926;30.404;2023-09-18T02:15:47;101966.44;;;25.87;41.96
77737;BME280;66903;59.926;30.404;2023-09-18T02:20:47;101977.59;;;25.88;41.78
77737;BME280;66903;59.926;30.404;2023-09-18T02:25:57;101980.47;;;25.88;42.11
77737;BME280;66903;59.926;30.404;2023-09-18T02:30:57;101977.03;;;25.86;41.86
77737;BME280;66903;59.926;30.404;2023-09-18T02:35:58;101997.94;;;25.87;41.94
77737;BME280;66903;59.926;30.404;2023-09-18T02:40:59;101998.50;;;25.89;41.77
77737;BME280;66903;59.926;30.404;2023-09-18T02:45:59;101990.47;;;25.86;42.05
77737;BME280;66903;59.926;30.404;2023-09-18T02:51:01;101989.34;;;25.87;41.79
77737;BME280;66903;59.926;30.404;2023-09-18T02:56:02;101992.50;;;25.85;41.93
77737;BME280;66903;59.926;30.404;2023-09-18T03:01:03;101998.53;;;25.84;41.77
77737;BME280;66903;59.926;30.404;2023-09-18T03:06:05;101990.19;;;25.82;41.73
77737;BME280;66903;59.926;30.404;2023-09-18T03:11:13;101998.53;;;25.84;41.90
77737;BME280;66903;59.926;30.404;2023-09-18T03:16:14;102004.78;;;25.81;41.92
77737;BME280;66903;59.926;30.404;2023-09-18T03:21:15;102013.97;;;25.83;41.80
77737;BME280;66903;59.926;30.404;2023-09-18T03:26:15;102003.66;;;25.82;41.76
77737;BME280;66903;59.926;30.404;2023-09-18T03:31:16;101991.34;;;25.81;41.80
77737;BME280;66903;59.926;30.404;2023-09-18T03:36:16;101988.78;;;25.80;41.80
77737;BME280;66903;59.926;30.404;2023-09-18T03:41:17;101992.22;;;25.77;41.49
77737;BME280;66903;59.926;30.404;2023-09-18T03:46:17;101993.63;;;25.79;41.63
77737;BME280;66903;59.926;30.404;2023-09-18T03:51:18;101990.19;;;25.77;41.59
77737;BME280;66903;59.926;30.404;2023-09-18T03:56:20;101993.34;;;25.76;41.59
77737;BME280;66903;59.926;30.404;2023-09-18T04:01:20;102003.09;;;25.75;41.71
77737;BME280;66903;59.926;30.404;2023-09-18T04:06:21;102009.66;;;25.75;41.74
77737;BME280;66903;59.926;30.404;2023-09-18T04:11:24;102019.13;;;25.76;41.58
77737;BME280;66903;59.926;30.404;2023-09-18T04:16:26;102021.09;;;25.70;41.45
77737;BME280;66903;59.926;30.404;2023-09-18T04:21:28;102020.25;;;25.55;41.53
77737;BME280;66903;59.926;30.404;2023-09-18T04:26:29;102025.97;;;25.50;41.48
77737;BME280;66903;59.926;30.404;2023-09-18T04:31:31;102025.69;;;25.41;41.44
77737;BME280;66903;59.926;30.404;2023-09-18T04:36:31;102012.75;;;25.34;41.51
77737;BME280;66903;59.926;30.404;2023-09-18T04:41:32;102021.63;;;25.32;41.74
77737;BME280;66903;59.926;30.404;2023-09-18T04:46:34;102020.75;;;25.27;41.83
77737;BME280;66903;59.926;30.404;2023-09-18T04:51:38;102026.47;;;25.22;42.00
77737;BME280;66903;59.926;30.404;2023-09-18T04:56:39;102027.91;;;25.19;42.04
77737;BME280;66903;59.926;30.404;2023-09-18T05:01:40;102031.88;;;25.18;41.89
77737;BME280;66903;59.926;30.404;2023-09-18T05:06:40;102033.91;;;25.23;42.22
77737;BME280;66903;59.926;30.404;2023-09-18T05:11:42;102028.19;;;25.28;42.01
77737;BME280;66903;59.926;30.404;2023-09-18T05:16:42;102031.34;;;25.26;41.91
77737;BME280;66903;59.926;30.404;2023-09-18T05:21:43;102052.19;;;25.22;42.00
77737;BME280;66903;59.926;30.404;2023-09-18T05:26:44;102042.19;;;25.19;42.00
77737;BME280;66903;59.926;30.404;2023-09-18T05:31:44;102039.59;;;25.17;42.12
77737;BME280;66903;59.926;30.404;2023-09-18T05:36:46;102049.91;;;25.13;41.94
77737;BME280;66903;59.926;30.404;2023-09-18T05:41:46;102051.59;;;25.14;41.86
77737;BME280;66903;59.926;30.404;2023-09-18T05:46:47;102062.16;;;25.14;41.80
77737;BME280;66903;59.926;30.404;2023-09-18T05:51:48;102049.03;;;25.13;41.81
77737;BME280;66903;59.926;30.404;2023-09-18T05:56:49;102058.75;;;25.12;41.95
77737;BME280;66903;59.926;30.404;2023-09-18T06:01:50;102061.63;;;25.12;41.83
77737;BME280;66903;59.926;30.404;2023-09-18T06:06:51;102066.47;;;25.11;41.89
77737;BME280;66903;59.926;30.404;2023-09-18T06:11:51;102066.75;;;25.10;42.17
77737;BME280;66903;59.926;30.404;2023-09-18T06:16:52;102065.31;;;25.12;41.96
77737;BME280;66903;59.926;30.404;2023-09-18T06:21:53;102070.78;;;25.19;41.94
77737;BME280;66903;59.926;30.404;2023-09-18T06:26:53;102076.31;;;25.41;41.37
77737;BME280;66903;59.926;30.404;2023-09-18T06:31:54;102067.78;;;25.66;41.25
77737;BME280;66903;59.926;30.404;2023-09-18T06:36:55;102090.41;;;26.17;40.72
77737;BME280;66903;59.926;30.404;2023-09-18T06:41:55;102096.69;;;26.65;39.96
77737;BME280;66903;59.926;30.404;2023-09-18T06:46:56;102098.56;;;27.09;39.55
77737;BME280;66903;59.926;30.404;2023-09-18T06:51:56;102084.84;;;27.55;39.26
77737;BME280;66903;59.926;30.404;2023-09-18T06:56:57;102090.03;;;27.97;38.55
77737;BME280;66903;59.926;30.404;2023-09-18T07:01:58;102085.69;;;28.33;38.27
77737;BME280;66903;59.926;30.404;2023-09-18T07:06:58;102097.19;;;28.62;37.71
77737;BME280;66903;59.926;30.404;2023-09-18T07:11:59;102101.69;;;28.73;37.65
77737;BME280;66903;59.926;30.404;2023-09-18T07:17:00;102103.28;;;28.84;37.81
77737;BME280;66903;59.926;30.404;2023-09-18T07:22:01;102093.72;;;28.88;37.41
77737;BME280;66903;59.926;30.404;2023-09-18T07:27:02;102099.38;;;28.75;37.13
77737;BME280;66903;59.926;30.404;2023-09-18T07:32:03;102102.31;;;28.70;37.50
77737;BME280;66903;59.926;30.404;2023-09-18T07:37:04;102107.16;;;28.98;37.17
77737;BME280;66903;59.926;30.404;2023-09-18T07:42:05;102107.94;;;29.27;36.81
77737;BME280;66903;59.926;30.404;2023-09-18T07:47:05;102116.78;;;29.54;36.82
77737;BME280;66903;59.926;30.404;2023-09-18T07:52:06;102104.81;;;29.66;35.99
77737;BME280;66903;59.926;30.404;2023-09-18T07:57:06;102104.66;;;29.57;36.28
77737;BME280;66903;59.926;30.404;2023-09-18T08:02:09;102109.69;;;29.28;36.46
77737;BME280;66903;59.926;30.404;2023-09-18T08:07:10;102113.09;;;29.06;36.72
77737;BME280;66903;59.926;30.404;2023-09-18T08:12:12;102114.19;;;28.87;36.57
77737;BME280;66903;59.926;30.404;2023-09-18T08:17:13;102105.38;;;28.78;36.95
77737;BME280;66903;59.926;30.404;2023-09-18T08:22:13;102104.88;;;28.71;37.19
77737;BME280;66903;59.926;30.404;2023-09-18T08:27:16;102103.50;;;28.64;37.31
77737;BME280;66903;59.926;30.404;2023-09-18T08:32:17;102106.81;;;28.76;36.59
77737;BME280;66903;59.926;30.404;2023-09-18T08:37:18;102103.41;;;28.74;36.47
77737;BME280;66903;59.926;30.404;2023-09-18T08:42:20;102114.13;;;28.68;37.02
77737;BME280;66903;59.926;30.404;2023-09-18T08:47:21;102107.31;;;28.59;37.27
77737;BME280;66903;59.926;30.404;2023-09-18T08:52:22;102120.59;;;28.50;36.91
77737;BME280;66903;59.926;30.404;2023-09-18T08:57:24;102122.09;;;28.43;37.15
77737;BME280;66903;59.926;30.404;2023-09-18T09:02:25;102124.16;;;28.37;37.68
77737;BME280;66903;59.926;30.404;2023-09-18T09:07:26;102125.06;;;28.32;37.84
77737;BME280;66903;59.926;30.404;2023-09-18T09:12:58;102130.88;;;28.27;37.98
77737;BME280;66903;59.926;30.404;2023-09-18T09:18:08;102114.00;;;28.16;37.92
77737;BME280;66903;59.926;30.404;2023-09-18T09:23:11;102136.47;;;28.09;38.04
77737;BME280;66903;59.926;30.404;2023-09-18T09:28:12;102137.63;;;28.08;37.93
77737;BME280;66903;59.926;30.404;2023-09-18T09:33:12;102127.63;;;28.00;38.22
77737;BME280;66903;59.926;30.404;2023-09-18T09:38:13;102132.28;;;27.96;37.95
77737;BME280;66903;59.926;30.404;2023-09-18T09:43:16;102138.91;;;27.92;37.95
77737;BME280;66903;59.926;30.404;2023-09-18T09:48:18;102137.47;;;27.84;38.10
77737;BME280;66903;59.926;30.404;2023-09-18T09:53:19;102138.38;;;27.80;37.61
77737;BME280;66903;59.926;30.404;2023-09-18T09:58:26;102129.81;;;27.75;38.37
77737;BME280;66903;59.926;30.404;2023-09-18T10:03:27;102128.72;;;27.66;38.12
77737;BME280;66903;59.926;30.404;2023-09-18T10:08:29;102132.47;;;27.61;38.56
77737;BME280;66903;59.926;30.404;2023-09-18T10:13:58;102134.50;;;27.61;38.60
77737;BME280;66903;59.926;30.404;2023-09-18T10:19:11;102132.22;;;27.53;38.67
77737;BME280;66903;59.926;30.404;2023-09-18T10:24:19;102131.13;;;27.49;38.77
77737;BME280;66903;59.926;30.404;2023-09-18T10:29:22;102144.31;;;27.50;38.87
77737;BME280;66903;59.926;30.404;2023-09-18T10:34:25;102139.72;;;27.49;39.00
77737;BME280;66903;59.926;30.404;2023-09-18T10:39:26;102152.63;;;27.46;38.74
77737;BME280;66903;59.926;30.404;2023-09-18T10:44:29;102138.03;;;27.43;39.02
77737;BME280;66903;59.926;30.404;2023-09-18T10:49:32;102140.06;;;27.42;38.98
77737;BME280;66903;59.926;30.404;2023-09-18T10:54:32;102151.81;;;27.41;38.73
77737;BME280;66903;59.926;30.404;2023-09-18T10:59:43;102156.72;;;27.40;38.92
77737;BME280;66903;59.926;30.404;2023-09-18T11:04:44;102142.91;;;27.37;38.74
77737;BME280;66903;59.926;30.404;2023-09-18T11:09:45;102144.34;;;27.40;38.63
77737;BME280;66903;59.926;30.404;2023-09-18T11:14:58;102150.06;;;27.45;38.92
77737;BME280;66903;59.926;30.404;2023-09-18T11:20:17;102153.22;;;27.48;38.43
77737;BME280;66903;59.926;30.404;2023-09-18T11:30:53;102150.94;;;27.45;38.16
77737;BME280;66903;59.926;30.404;2023-09-18T11:36:07;102138.06;;;27.27;38.03
77737;BME280;66903;59.926;30.404;2023-09-18T11:41:35;102143.25;;;27.31;38.16
77737;BME280;66903;59.926;30.404;2023-09-18T11:46:40;102148.44;;;27.18;38.51
77737;BME280;66903;59.926;30.404;2023-09-18T11:51:41;102149.06;;;27.10;37.70
77737;BME280;66903;59.926;30.404;2023-09-18T11:56:43;102143.91;;;27.02;38.38
77737;BME280;66903;59.926;30.404;2023-09-18T12:01:52;102142.47;;;27.05;38.92
77737;BME280;66903;59.926;30.404;2023-09-18T12:06:53;102136.13;;;27.08;38.83
77737;BME280;66903;59.926;30.404;2023-09-18T12:11:53;102132.69;;;27.11;38.02
77737;BME280;66903;59.926;30.404;2023-09-18T12:16:56;102129.25;;;27.09;38.41
77737;BME280;66903;59.926;30.404;2023-09-18T12:21:57;102114.63;;;27.10;37.96
77737;BME280;66903;59.926;30.404;2023-09-18T12:26:58;102120.06;;;27.12;38.24
77737;BME280;66903;59.926;30.404;2023-09-18T12:31:59;102118.31;;;27.16;37.88
77737;BME280;66903;59.926;30.404;2023-09-18T12:37:00;102110.56;;;27.16;37.90
77737;BME280;66903;59.926;30.404;2023-09-18T12:42:01;102117.19;;;27.12;37.61
77737;BME280;66903;59.926;30.404;2023-09-18T12:47:03;102119.81;;;27.03;37.59
77737;BME280;66903;59.926;30.404;2023-09-18T12:52:04;102110.94;;;26.95;37.68
77737;BME280;66903;59.926;30.404;2023-09-18T12:57:07;102106.69;;;26.87;37.47
77737;BME280;66903;59.926;30.404;2023-09-18T13:02:08;102099.81;;;26.78;37.39
77737;BME280;66903;59.926;30.404;2023-09-18T13:07:13;102102.72;;;26.73;37.68
77737;BME280;66903;59.926;30.404;2023-09-18T13:12:14;102087.53;;;26.68;37.39
77737;BME280;66903;59.926;30.404;2023-09-18T13:17:14;102084.66;;;26.63;37.44
77737;BME280;66903;59.926;30.404;2023-09-18T13:22:25;102077.19;;;26.62;37.88
77737;BME280;66903;59.926;30.404;2023-09-18T13:27:25;102069.75;;;26.56;37.45
77737;BME280;66903;59.926;30.404;2023-09-18T13:32:26;102063.16;;;26.55;37.42
77737;BME280;66903;59.926;30.404;2023-09-18T13:37:27;102059.44;;;26.55;37.58
77737;BME280;66903;59.926;30.404;2023-09-18T13:42:29;102058.84;;;26.53;37.75
77737;BME280;66903;59.926;30.404;2023-09-18T13:47:30;102056.56;;;26.55;37.73
77737;BME280;66903;59.926;30.404;2023-09-18T13:52:33;102058.28;;;26.56;37.67
77737;BME280;66903;59.926;30.404;2023-09-18T13:57:35;102057.69;;;26.59;38.08
77737;BME280;66903;59.926;30.404;2023-09-18T14:02:36;102055.69;;;26.59;37.62
77737;BME280;66903;59.926;30.404;2023-09-18T14:07:37;102069.44;;;26.62;37.72
77737;BME280;66903;59.926;30.404;2023-09-18T14:12:41;102058.25;;;26.66;37.96
77737;BME280;66903;59.926;30.404;2023-09-18T14:17:42;102052.81;;;26.69;37.50
77737;BME280;66903;59.926;30.404;2023-09-18T14:22:42;102052.53;;;26.71;37.40
77737;BME280;66903;59.926;30.404;2023-09-18T14:27:43;102049.38;;;26.72;37.21
77737;BME280;66903;59.926;30.404;2023-09-18T14:32:44;102051.13;;;26.68;37.48
77737;BME280;66903;59.926;30.404;2023-09-18T14:37:44;102037.06;;;26.72;37.61
77737;BME280;66903;59.926;30.404;2023-09-18T14:42:45;102023.56;;;26.72;37.68
77737;BME280;66903;59.926;30.404;2023-09-18T14:47:45;102026.72;;;26.76;37.33
77737;BME280;66903;59.926;30.404;2023-09-18T14:52:46;102019.56;;;26.73;37.64
77737;BME280;66903;59.926;30.404;2023-09-18T14:57:47;102019.31;;;26.70;37.56
77737;BME280;66903;59.926;30.404;2023-09-18T15:02:49;102014.69;;;26.69;37.59
77737;BME280;66903;59.926;30.404;2023-09-18T15:07:49;102017.25;;;26.65;37.57
77737;BME280;66903;59.926;30.404;2023-09-18T15:12:50;102009.53;;;26.66;37.44
77737;BME280;66903;59.926;30.404;2023-09-18T15:17:51;102002.63;;;26.67;37.47
77737;BME280;66903;59.926;30.404;2023-09-18T15:22:55;102009.78;;;26.79;36.99
77737;BME280;66903;59.926;30.404;2023-09-18T15:27:56;102004.28;;;26.88;37.34
77737;BME280;66903;59.926;30.404;2023-09-18T15:32:56;102004.81;;;26.95;36.92
77737;BME280;66903;59.926;30.404;2023-09-18T15:37:57;102007.97;;;26.98;37.04
77737;BME280;66903;59.926;30.404;2023-09-18T15:42:58;101997.63;;;27.02;36.95
77737;BME280;66903;59.926;30.404;2023-09-18T15:47:58;101997.03;;;27.05;37.00
77737;BME280;66903;59.926;30.404;2023-09-18T15:52:59;102003.63;;;27.06;36.84
77737;BME280;66903;59.926;30.404;2023-09-18T15:57:59;101998.47;;;27.08;37.24
77737;BME280;66903;59.926;30.404;2023-09-18T16:03:00;101993.59;;;27.08;36.76
77737;BME280;66903;59.926;30.404;2023-09-18T16:08:01;101989.84;;;27.08;36.68
77737;BME280;66903;59.926;30.404;2023-09-18T16:13:04;101986.97;;;27.08;37.08
77737;BME280;66903;59.926;30.404;2023-09-18T16:18:06;101990.16;;;27.06;36.69
77737;BME280;66903;59.926;30.404;2023-09-18T16:23:06;101990.44;;;27.05;36.77
77737;BME280;66903;59.926;30.404;2023-09-18T16:28:07;101986.72;;;27.04;36.54
77737;BME280;66903;59.926;30.404;2023-09-18T16:33:08;101987.00;;;27.03;37.02
77737;BME280;66903;59.926;30.404;2023-09-18T16:38:08;101977.25;;;27.04;36.91
77737;BME280;66903;59.926;30.404;2023-09-18T16:43:09;101974.06;;;27.05;37.15
77737;BME280;66903;59.926;30.404;2023-09-18T16:48:10;101972.06;;;27.06;37.51
77737;BME280;66903;59.926;30.404;2023-09-18T16:53:11;101968.91;;;27.07;37.65
77737;BME280;66903;59.926;30.404;2023-09-18T16:58:12;101966.03;;;27.07;37.60
77737;BME280;66903;59.926;30.404;2023-09-18T17:03:12;101973.81;;;27.07;38.19
77737;BME280;66903;59.926;30.404;2023-09-18T17:08:13;101962.91;;;27.04;38.17
77737;BME280;66903;59.926;30.404;2023-09-18T17:13:14;101959.47;;;27.02;38.67
77737;BME280;66903;59.926;30.404;2023-09-18T17:18:15;101957.50;;;26.97;39.37
77737;BME280;66903;59.926;30.404;2023-09-18T17:23:16;101953.19;;;26.95;39.35
77737;BME280;66903;59.926;30.404;2023-09-18T17:28:19;101955.22;;;26.94;39.56
77737;BME280;66903;59.926;30.404;2023-09-18T17:33:20;101964.13;;;26.88;40.51
77737;BME280;66903;59.926;30.404;2023-09-18T17:38:21;101955.28;;;26.84;40.42
77737;BME280;66903;59.926;30.404;2023-09-18T17:43:21;101951.88;;;26.82;40.70
77737;BME280;66903;59.926;30.404;2023-09-18T17:48:22;101953.88;;;26.82;40.51
77737;BME280;66903;59.926;30.404;2023-09-18T17:53:23;101965.63;;;26.80;40.37
77737;BME280;66903;59.926;30.404;2023-09-18T17:58:24;101965.06;;;26.78;40.56
77737;BME280;66903;59.926;30.404;2023-09-18T18:03:25;101958.78;;;26.76;41.29
77737;BME280;66903;59.926;30.404;2023-09-18T18:08:25;101956.19;;;26.75;41.46
77737;BME280;66903;59.926;30.404;2023-09-18T18:13:26;101962.53;;;26.72;41.85
77737;BME280;66903;59.926;30.404;2023-09-18T18:18:27;101965.66;;;26.70;41.84
77737;BME280;66903;59.926;30.404;2023-09-18T18:23:27;101967.69;;;26.70;42.04
77737;BME280;66903;59.926;30.404;2023-09-18T18:28:28;101965.13;;;26.68;41.63
77737;BME280;66903;59.926;30.404;2023-09-18T18:33:28;101953.06;;;26.66;42.05
77737;BME280;66903;59.926;30.404;2023-09-18T18:38:29;101943.59;;;26.66;42.46
77737;BME280;66903;59.926;30.404;2023-09-18T18:43:31;101950.50;;;26.65;42.42
77737;BME280;66903;59.926;30.404;2023-09-18T18:48:31;101938.75;;;26.61;42.21
77737;BME280;66903;59.926;30.404;2023-09-18T18:53:33;101938.19;;;26.59;42.30
77737;BME280;66903;59.926;30.404;2023-09-18T18:58:33;101933.03;;;26.56;40.52
77737;BME280;66903;59.926;30.404;2023-09-18T19:03:35;101922.13;;;25.59;39.04
77737;BME280;66903;59.926;30.404;2023-09-18T19:08:37;101918.78;;;24.03;40.94
77737;BME280;66903;59.926;30.404;2023-09-18T19:13:38;101905.44;;;23.04;42.16
77737;BME280;66903;59.926;30.404;2023-09-18T19:18:41;101909.47;;;22.55;42.56
77737;BME280;66903;59.926;30.404;2023-09-18T19:23:42;101903.03;;;22.21;42.60
77737;BME280;66903;59.926;30.404;2023-09-18T19:28:47;101897.53;;;21.93;42.90
77737;BME280;66903;59.926;30.404;2023-09-18T19:33:48;101878.34;;;21.67;43.59
77737;BME280;66903;59.926;30.404;2023-09-18T19:38:48;101873.53;;;21.51;43.77
77737;BME280;66903;59.926;30.404;2023-09-18T19:43:51;101869.19;;;21.43;43.45
77737;BME280;66903;59.926;30.404;2023-09-18T19:48:51;101856.94;;;21.43;43.83
77737;BME280;66903;59.926;30.404;2023-09-18T19:53:52;101850.66;;;21.41;44.29
77737;BME280;66903;59.926;30.404;2023-09-18T19:58:53;101853.50;;;21.41;43.84
77737;BME280;66903;59.926;30.404;2023-09-18T20:03:54;101861.69;;;21.37;44.04
77737;BME280;66903;59.926;30.404;2023-09-18T20:08:54;101856.25;;;21.36;43.82
77737;BME280;66903;59.926;30.404;2023-09-18T20:13:55;101845.56;;;21.43;45.82
77737;BME280;66903;59.926;30.404;2023-09-18T20:18:58;101846.03;;;22.16;45.01
77737;BME280;66903;59.926;30.404;2023-09-18T20:23:59;101843.44;;;22.89;44.57
77737;BME280;66903;59.926;30.404;2023-09-18T20:28:59;101842.50;;;23.47;43.88
77737;BME280;66903;59.926;30.404;2023-09-18T20:34:00;101840.47;;;23.89;43.43
77737;BME280;66903;59.926;30.404;2023-09-18T20:39:00;101823.22;;;24.21;43.16
77737;BME280;66903;59.926;30.404;2023-09-18T20:44:02;101826.47;;;24.45;42.90
77737;BME280;66903;59.926;30.404;2023-09-18T20:49:04;101817.38;;;24.63;42.92
77737;BME280;66903;59.926;30.404;2023-09-18T20:54:05;101819.69;;;24.76;42.93
77737;BME280;66903;59.926;30.404;2023-09-18T20:59:05;101807.13;;;24.87;42.61
77737;BME280;66903;59.926;30.404;2023-09-18T21:04:06;101804.25;;;24.97;42.62
77737;BME280;66903;59.926;30.404;2023-09-18T21:09:08;101822.84;;;25.04;42.18
77737;BME280;66903;59.926;30.404;2023-09-18T21:14:13;101817.13;;;25.09;42.22
77737;BME280;66903;59.926;30.404;2023-09-18T21:19:14;101817.69;;;25.11;42.35
77737;BME280;66903;59.926;30.404;2023-09-18T21:24:14;101822.53;;;25.16;42.07
77737;BME280;66903;59.926;30.404;2023-09-18T21:29:15;101816.28;;;25.19;42.20
77737;BME280;66903;59.926;30.404;2023-09-18T21:34:15;101821.69;;;25.21;42.13
77737;BME280;66903;59.926;30.404;2023-09-18T21:39:16;101805.13;;;25.23;42.93
77737;BME280;66903;59.926;30.404;2023-09-18T21:44:17;101797.66;;;25.27;43.51
77737;BME280;66903;59.926;30.404;2023-09-18T21:49:17;101776.22;;;25.29;43.76
77737;BME280;66903;59.926;30.404;2023-09-18T21:54:18;101781.06;;;25.34;43.93
77737;BME280;66903;59.926;30.404;2023-09-18T21:59:18;101760.50;;;25.37;43.92
77737;BME280;66903;59.926;30.404;2023-09-18T22:04:19;101753.34;;;25.39;43.82
77737;BME280;66903;59.926;30.404;2023-09-18T22:09:21;101759.63;;;25.41;43.96
77737;BME280;66903;59.926;30.404;2023-09-18T22:14:25;101749.06;;;25.42;43.67
77737;BME280;66903;59.926;30.404;2023-09-18T22:19:25;101742.16;;;25.43;43.76
77737;BME280;66903;59.926;30.404;2023-09-18T22:24:26;101744.72;;;25.44;43.84
77737;BME280;66903;59.926;30.404;2023-09-18T22:29:27;101734.16;;;25.45;43.92
77737;BME280;66903;59.926;30.404;2023-09-18T22:34:27;101737.59;;;25.47;43.89
77737;BME280;66903;59.926;30.404;2023-09-18T22:56:14;101708.13;;;25.46;43.72
77737;BME280;66903;59.926;30.404;2023-09-18T23:01:17;101701.53;;;25.46;43.71
77737;BME280;66903;59.926;30.404;2023-09-18T23:06:17;101697.53;;;25.47;43.80
77737;BME280;66903;59.926;30.404;2023-09-18T23:11:18;101688.94;;;25.47;43.71
77737;BME280;66903;59.926;30.404;2023-09-18T23:16:19;101696.38;;;25.48;43.78
77737;BME280;66903;59.926;30.404;2023-09-18T23:21:25;101691.81;;;25.47;43.77
77737;BME280;66903;59.926;30.404;2023-09-18T23:26:26;101689.81;;;25.47;43.63
77737;BME280;66903;59.926;30.404;2023-09-18T23:31:29;101690.09;;;25.46;43.69
77737;BME280;66903;59.926;30.404;2023-09-18T23:36:30;101679.81;;;25.45;43.74
77737;BME280;66903;59.926;30.404;2023-09-18T23:41:31;101665.19;;;25.46;43.58
77737;BME280;66903;59.926;30.404;2023-09-18T23:46:32;101662.38;;;25.41;43.38
77737;BME280;66903;59.926;30.404;2023-09-18T23:51:33;101661.78;;;25.44;43.50
77737;BME280;66903;59.926;30.404;2023-09-18T23:56:34;101646.63;;;25.44;43.39
